createdAt,value
2023-05-15T00:01:01.903Z,9.36
2023-05-15T00:03:30.252Z,9.20
2023-05-15T00:05:58.560Z,9.22
2023-05-15T00:08:28.149Z,9.17
2023-05-15T00:11:01.700Z,9.15
2023-05-15T00:13:30.552Z,9.17
2023-05-15T00:15:58.842Z,9.16
2023-05-15T00:18:27.306Z,9.08
2023-05-15T00:20:55.657Z,8.96
2023-05-15T00:23:23.910Z,9.12
2023-05-15T00:25:54.071Z,9.10
2023-05-15T00:28:22.211Z,8.91
2023-05-15T00:30:50.527Z,8.99
2023-05-15T00:33:18.779Z,8.92
2023-05-15T00:35:47.154Z,8.83
2023-05-15T00:38:15.603Z,8.99
2023-05-15T00:40:45.430Z,8.91
2023-05-15T00:43:16.940Z,8.94
2023-05-15T00:45:45.816Z,8.82
2023-05-15T00:48:14.401Z,8.86
2023-05-15T00:50:43.459Z,8.83
2023-05-15T00:53:12.131Z,8.73
2023-05-15T00:55:41.474Z,8.42
2023-05-15T00:58:11.864Z,8.48
2023-05-15T01:00:42.287Z,8.51
2023-05-15T01:03:10.593Z,8.48
2023-05-15T01:05:39.112Z,8.62
2023-05-15T01:08:20.064Z,8.57
2023-05-15T01:10:49.755Z,8.53
2023-05-15T01:13:20.683Z,8.34
2023-05-15T01:15:50.815Z,8.29
2023-05-15T01:18:19.031Z,8.30
2023-05-15T01:21:16.917Z,8.23
2023-05-15T01:24:03.685Z,8.18
2023-05-15T01:26:57.697Z,8.28
2023-05-15T01:29:31.632Z,8.25
2023-05-15T01:32:03.783Z,8.15
2023-05-15T01:34:39.620Z,8.18
2023-05-15T01:37:09.944Z,8.21
2023-05-15T01:39:41.126Z,7.95
2023-05-15T01:42:12.046Z,7.91
2023-05-15T01:44:47.225Z,7.93
2023-05-15T01:47:18.946Z,7.99
2023-05-15T01:49:50.521Z,8.06
2023-05-15T01:52:22.387Z,8.14
2023-05-15T01:54:51.230Z,8.09
2023-05-15T01:57:20.601Z,8.14
2023-05-15T01:59:52.249Z,8.10
2023-05-15T02:02:21.201Z,8.03
2023-05-15T02:04:51.295Z,7.78
2023-05-15T02:07:21.855Z,7.44
2023-05-15T02:09:52.145Z,7.35
2023-05-15T02:12:22.390Z,7.82
2023-05-15T02:14:53.158Z,7.80
2023-05-15T02:17:22.154Z,7.78
2023-05-15T02:19:51.309Z,7.95
2023-05-15T02:22:19.885Z,8.12
2023-05-15T02:24:48.126Z,8.01
2023-05-15T02:27:23.637Z,7.97
2023-05-15T02:30:04.381Z,7.95
2023-05-15T02:32:41.610Z,7.76
2023-05-15T02:35:19.879Z,7.87
2023-05-15T02:37:52.199Z,7.76
2023-05-15T02:40:22.881Z,7.98
2023-05-15T02:42:53.525Z,7.93
2023-05-15T02:45:25.685Z,8.00
2023-05-15T02:47:55.004Z,7.84
2023-05-15T02:50:23.785Z,7.94
2023-05-15T02:52:52.080Z,7.77
2023-05-15T02:55:20.674Z,7.73
2023-05-15T02:57:48.835Z,7.61
2023-05-15T03:00:17.600Z,7.58
2023-05-15T03:02:47.194Z,7.19
2023-05-15T03:05:15.469Z,6.97
2023-05-15T03:07:43.639Z,7.47
2023-05-15T03:10:11.854Z,7.55
2023-05-15T03:12:41.070Z,7.26
2023-05-15T03:15:09.927Z,7.11
2023-05-15T03:17:38.177Z,7.20
2023-05-15T03:20:09.736Z,7.56
2023-05-15T03:22:37.928Z,7.87
2023-05-15T03:25:07.049Z,7.92
2023-05-15T03:27:35.518Z,7.79
2023-05-15T03:30:04.317Z,7.78
2023-05-15T03:32:32.665Z,7.51
2023-05-15T03:35:00.899Z,7.76
2023-05-15T03:37:30.570Z,8.22
2023-05-15T03:39:59.342Z,8.40
2023-05-15T03:42:27.961Z,8.54
2023-05-15T03:44:56.863Z,8.37
2023-05-15T03:47:25.138Z,8.29
2023-05-15T03:49:54.292Z,8.61
2023-05-15T03:52:22.490Z,8.63
2023-05-15T03:54:52.355Z,8.67
2023-05-15T03:57:20.611Z,8.66
2023-05-15T03:59:48.783Z,8.74
2023-05-15T04:02:16.995Z,8.74
2023-05-15T04:04:45.371Z,8.74
2023-05-15T04:07:13.652Z,8.69
2023-05-15T04:09:41.841Z,8.85
2023-05-15T04:12:11.424Z,8.92
2023-05-15T04:14:41.968Z,8.92
2023-05-15T04:17:10.169Z,8.90
2023-05-15T04:19:39.132Z,8.94
2023-05-15T04:22:08.066Z,9.14
2023-05-15T04:24:36.201Z,9.34
2023-05-15T04:27:04.785Z,9.38
2023-05-15T04:29:34.847Z,9.02
2023-05-15T04:32:03.347Z,9.13
2023-05-15T04:34:31.581Z,9.24
2023-05-15T04:36:59.774Z,9.15
2023-05-15T04:39:27.929Z,9.42
2023-05-15T04:41:56.186Z,9.13
2023-05-15T04:44:24.417Z,9.02
2023-05-15T04:46:53.899Z,9.02
2023-05-15T04:49:22.073Z,9.12
2023-05-15T04:51:50.259Z,9.30
2023-05-15T04:54:18.476Z,9.70
2023-05-15T04:56:46.934Z,9.78
2023-05-15T04:59:15.921Z,9.68
2023-05-15T05:01:44.490Z,9.87
2023-05-15T05:04:14.684Z,9.70
2023-05-15T05:06:43.148Z,9.54
2023-05-15T05:09:11.410Z,9.57
2023-05-15T05:11:43.506Z,9.72
2023-05-15T05:14:12.079Z,9.98
2023-05-15T05:16:40.586Z,10.10
2023-05-15T05:19:09.456Z,9.86
2023-05-15T05:21:39.177Z,10.09
2023-05-15T05:24:07.464Z,9.86
2023-05-15T05:26:35.707Z,9.95
2023-05-15T05:29:03.908Z,10.13
2023-05-15T05:31:32.289Z,10.03
2023-05-15T05:34:00.505Z,10.16
2023-05-15T05:36:28.756Z,10.31
2023-05-15T05:38:58.443Z,10.45
2023-05-15T05:41:30.285Z,10.67
2023-05-15T05:43:58.437Z,10.59
2023-05-15T05:46:27.336Z,10.69
2023-05-15T05:48:55.607Z,11.00
2023-05-15T05:51:23.872Z,11.34
2023-05-15T05:53:52.045Z,11.24
2023-05-15T05:56:22.675Z,11.36
2023-05-15T05:58:51.274Z,11.64
2023-05-15T06:01:19.481Z,11.94
2023-05-15T06:03:47.748Z,11.95
2023-05-15T06:06:16.124Z,12.18
2023-05-15T06:08:44.489Z,11.85
2023-05-15T06:11:12.906Z,12.25
2023-05-15T06:13:43.400Z,12.35
2023-05-15T06:16:11.590Z,12.17
2023-05-15T06:18:39.816Z,12.23
2023-05-15T06:21:08.223Z,12.13
2023-05-15T06:23:37.355Z,11.91
2023-05-15T06:26:05.701Z,11.91
2023-05-15T06:28:34.439Z,12.03
2023-05-15T06:31:04.287Z,11.93
2023-05-15T06:33:32.887Z,12.29
2023-05-15T06:36:01.424Z,12.09
2023-05-15T06:38:29.614Z,12.07
2023-05-15T06:40:58.130Z,11.98
2023-05-15T06:43:26.275Z,12.32
2023-05-15T06:45:54.536Z,11.96
2023-05-15T06:48:24.606Z,12.16
2023-05-15T06:50:52.804Z,12.33
2023-05-15T06:53:21.428Z,12.55
2023-05-15T06:55:49.922Z,12.47
2023-05-15T06:58:18.286Z,12.52
2023-05-15T07:00:46.489Z,12.56
2023-05-15T07:03:16.698Z,12.92
2023-05-15T07:05:46.521Z,13.10
2023-05-15T07:08:15.073Z,13.21
2023-05-15T07:10:43.385Z,13.65
2023-05-15T07:13:11.618Z,14.01
2023-05-15T07:15:40.480Z,14.20
2023-05-15T07:18:08.821Z,14.37
2023-05-15T07:20:37.404Z,13.95
2023-05-15T07:23:07.381Z,14.00
2023-05-15T07:25:35.604Z,14.65
2023-05-15T07:28:03.821Z,14.75
2023-05-15T07:30:32.056Z,14.62
2023-05-15T07:33:00.966Z,14.84
2023-05-15T07:35:29.512Z,15.04
2023-05-15T07:37:57.695Z,14.57
2023-05-15T07:40:27.446Z,14.82
2023-05-15T07:42:55.802Z,15.03
2023-05-15T07:45:24.374Z,15.18
2023-05-15T07:47:53.023Z,14.86
2023-05-15T07:50:21.427Z,15.22
2023-05-15T07:52:49.942Z,15.51
2023-05-15T07:55:18.121Z,15.51
2023-05-15T07:57:53.370Z,15.68
2023-05-15T08:00:22.661Z,15.52
2023-05-15T08:02:51.035Z,15.52
2023-05-15T08:05:19.416Z,15.38
2023-05-15T08:07:47.585Z,15.65
2023-05-15T08:10:16.128Z,15.65
2023-05-15T08:12:46.532Z,15.61
2023-05-15T08:15:16.177Z,15.81
2023-05-15T08:17:44.611Z,15.87
2023-05-15T08:20:14.080Z,15.93
2023-05-15T08:22:42.219Z,16.13
2023-05-15T08:25:10.949Z,16.33
2023-05-15T08:27:39.153Z,16.38
2023-05-15T08:30:08.668Z,16.38
2023-05-15T08:32:38.522Z,16.28
2023-05-15T08:35:08.209Z,16.54
2023-05-15T08:37:36.567Z,16.37
2023-05-15T08:40:07.975Z,15.99
2023-05-15T08:42:44.267Z,16.41
2023-05-15T08:45:13.815Z,16.33
2023-05-15T08:47:44.234Z,16.39
2023-05-15T08:50:14.616Z,16.53
2023-05-15T08:52:43.961Z,16.54
2023-05-15T08:55:12.589Z,16.49
2023-05-15T08:57:42.174Z,16.38
2023-05-15T09:00:14.527Z,16.30
2023-05-15T09:02:44.493Z,16.34
2023-05-15T09:05:12.694Z,16.25
2023-05-15T09:07:41.793Z,16.26
2023-05-15T09:10:11.114Z,16.35
2023-05-15T09:12:44.058Z,16.37
2023-05-15T09:15:14.353Z,15.99
2023-05-15T09:17:44.409Z,16.28
2023-05-15T09:20:26.921Z,16.65
2023-05-15T09:22:55.424Z,16.78
2023-05-15T09:25:40.119Z,17.03
2023-05-15T09:28:10.577Z,16.90
2023-05-15T09:30:39.433Z,16.70
2023-05-15T09:33:10.223Z,16.78
2023-05-15T09:35:40.615Z,16.96
2023-05-15T09:38:11.606Z,16.83
2023-05-15T09:40:41.014Z,17.04
2023-05-15T09:43:11.353Z,17.15
2023-05-15T09:45:39.985Z,16.81
2023-05-15T09:48:11.899Z,17.28
2023-05-15T09:50:41.025Z,17.34
2023-05-15T09:53:12.787Z,17.37
2023-05-15T09:55:42.981Z,17.17
2023-05-15T09:58:12.242Z,17.59
2023-05-15T10:00:48.568Z,17.73
2023-05-15T10:03:20.631Z,17.99
2023-05-15T10:05:49.125Z,17.94
2023-05-15T10:08:26.859Z,18.24
2023-05-15T10:10:55.387Z,17.98
2023-05-15T10:13:24.156Z,18.13
2023-05-15T10:15:53.954Z,18.09
2023-05-15T10:18:28.592Z,17.96
2023-05-15T10:20:57.995Z,18.03
2023-05-15T10:23:27.066Z,17.96
2023-05-15T10:26:02.944Z,17.99
2023-05-15T10:28:32.414Z,18.03
2023-05-15T10:31:02.761Z,17.62
2023-05-15T10:33:33.733Z,17.95
2023-05-15T10:36:02.986Z,17.87
2023-05-15T10:38:32.244Z,17.66
2023-05-15T10:41:15.669Z,17.50
2023-05-15T10:43:45.797Z,17.84
2023-05-15T10:46:15.012Z,17.64
2023-05-15T10:48:44.745Z,17.52
2023-05-15T10:51:17.623Z,17.45
2023-05-15T10:53:46.737Z,17.52
2023-05-15T10:56:16.660Z,17.60
2023-05-15T10:58:47.351Z,17.89
2023-05-15T11:01:33.097Z,18.15
2023-05-15T11:04:13.609Z,18.28
2023-05-15T11:06:43.936Z,18.34
2023-05-15T11:09:34.986Z,18.54
2023-05-15T11:12:04.258Z,18.86
2023-05-15T11:14:33.516Z,18.62
2023-05-15T11:17:04.007Z,18.51
2023-05-15T11:19:55.896Z,18.50
2023-05-15T11:22:29.801Z,18.17
2023-05-15T11:25:00.805Z,18.27
2023-05-15T11:27:31.910Z,18.09
2023-05-15T11:30:10.007Z,17.96
2023-05-15T11:32:45.900Z,17.73
2023-05-15T11:35:20.366Z,17.30
2023-05-15T11:37:50.222Z,17.28
2023-05-15T11:40:24.394Z,17.43
2023-05-15T11:43:08.120Z,17.55
2023-05-15T11:45:38.470Z,17.85
2023-05-15T11:48:12.405Z,18.03
2023-05-15T11:50:43.004Z,17.69
2023-05-15T11:53:11.524Z,17.18
2023-05-15T11:55:41.561Z,17.06
2023-05-15T11:58:14.077Z,17.19
2023-05-15T12:00:43.149Z,17.28
2023-05-15T12:03:18.551Z,17.39
2023-05-15T12:05:58.124Z,17.33
2023-05-15T12:08:31.555Z,17.48
2023-05-15T12:11:00.495Z,17.61
2023-05-15T12:13:29.086Z,17.28
2023-05-15T12:15:57.786Z,16.42
2023-05-15T12:18:26.350Z,16.43
2023-05-15T12:20:56.471Z,16.01
2023-05-15T12:23:26.702Z,15.43
2023-05-15T12:25:59.945Z,15.12
2023-05-15T12:28:29.779Z,14.96
2023-05-15T12:30:59.115Z,14.86
2023-05-15T12:33:27.542Z,14.57
2023-05-15T12:36:01.142Z,14.53
2023-05-15T12:38:30.592Z,14.94
2023-05-15T12:40:59.364Z,15.03
2023-05-15T12:43:28.513Z,15.04
2023-05-15T12:45:57.800Z,14.80
2023-05-15T12:48:30.988Z,14.89
2023-05-15T12:51:07.798Z,14.98
2023-05-15T12:53:39.452Z,14.94
2023-05-15T12:56:09.006Z,15.14
2023-05-15T12:58:38.274Z,15.09
2023-05-15T13:01:06.910Z,15.13
2023-05-15T13:03:35.555Z,15.11
2023-05-15T13:06:04.258Z,15.07
2023-05-15T13:08:33.843Z,14.89
2023-05-15T13:11:02.025Z,14.63
2023-05-15T13:13:46.612Z,14.67
2023-05-15T13:16:22.521Z,14.58
2023-05-15T13:18:50.869Z,14.45
2023-05-15T13:21:19.473Z,14.49
2023-05-15T13:23:49.212Z,14.14
2023-05-15T13:26:17.380Z,14.27
2023-05-15T13:28:45.579Z,13.94
2023-05-15T13:31:13.832Z,13.79
2023-05-15T13:33:42.081Z,13.98
2023-05-15T13:36:25.905Z,14.00
2023-05-15T13:38:56.024Z,13.79
2023-05-15T13:41:24.709Z,13.69
2023-05-15T13:43:52.864Z,13.71
2023-05-15T13:46:21.092Z,13.85
2023-05-15T13:48:49.627Z,14.00
2023-05-15T13:51:17.874Z,14.13
2023-05-15T13:53:46.009Z,14.17
2023-05-15T13:56:16.340Z,14.24
2023-05-15T13:58:44.522Z,14.33
2023-05-15T14:01:13.087Z,14.63
2023-05-15T14:03:41.358Z,14.85
2023-05-15T14:06:10.134Z,14.88
2023-05-15T14:08:38.288Z,14.89
2023-05-15T14:11:06.474Z,14.13
2023-05-15T14:13:36.014Z,14.68
2023-05-15T14:16:04.241Z,14.66
2023-05-15T14:18:32.452Z,14.49
2023-05-15T14:21:00.723Z,14.21
2023-05-15T14:23:29.295Z,14.26
2023-05-15T14:25:57.887Z,14.40
2023-05-15T14:28:26.080Z,14.36
2023-05-15T14:30:55.590Z,14.48
2023-05-15T14:33:23.798Z,14.45
2023-05-15T14:35:52.418Z,14.60
2023-05-15T14:38:20.592Z,14.57
2023-05-15T14:40:48.789Z,14.58
2023-05-15T14:43:17.200Z,14.66
2023-05-15T14:45:45.396Z,14.55
2023-05-15T14:48:14.883Z,14.62
2023-05-15T14:50:43.059Z,14.73
2023-05-15T14:53:11.602Z,14.86
2023-05-15T14:55:39.785Z,14.90
2023-05-15T14:58:11.187Z,14.93
2023-05-15T15:00:39.387Z,14.96
2023-05-15T15:03:08.189Z,14.94
2023-05-15T15:05:37.814Z,14.89
2023-05-15T15:08:07.169Z,14.85
2023-05-15T15:10:36.781Z,14.73
2023-05-15T15:13:05.761Z,14.72
2023-05-15T15:15:35.480Z,14.08
2023-05-15T15:18:03.972Z,14.30
2023-05-15T15:20:32.526Z,14.41
2023-05-15T15:23:02.160Z,14.39
2023-05-15T15:25:32.137Z,14.33
2023-05-15T15:28:00.985Z,14.44
2023-05-15T15:30:29.216Z,14.48
2023-05-15T15:32:57.952Z,14.43
2023-05-15T15:35:26.229Z,14.83
2023-05-15T15:37:54.350Z,15.05
2023-05-15T15:40:24.710Z,14.90
2023-05-15T15:42:54.213Z,14.80
2023-05-15T15:45:22.811Z,14.90
2023-05-15T15:47:51.112Z,15.11
2023-05-15T15:50:19.389Z,15.08
2023-05-15T15:52:47.553Z,14.58
2023-05-15T15:55:15.818Z,14.57
2023-05-15T15:57:45.792Z,14.54
2023-05-15T16:00:15.330Z,14.65
2023-05-15T16:02:43.657Z,14.22
2023-05-15T16:05:11.909Z,14.36
2023-05-15T16:07:40.116Z,14.75
2023-05-15T16:10:27.354Z,14.90
2023-05-15T16:12:57.075Z,14.53
2023-05-15T16:15:25.286Z,14.70
2023-05-15T16:17:54.681Z,15.49
2023-05-15T16:20:24.066Z,17.06
2023-05-15T16:22:52.709Z,16.47
2023-05-15T16:25:21.272Z,16.41
2023-05-15T16:27:49.497Z,15.79
2023-05-15T16:30:21.437Z,15.49
2023-05-15T16:32:50.376Z,16.21
2023-05-15T16:35:20.596Z,16.93
2023-05-15T16:37:48.800Z,18.08
2023-05-15T16:40:16.945Z,18.07
2023-05-15T16:42:45.121Z,17.82
2023-05-15T16:45:13.428Z,17.42
2023-05-15T16:47:43.150Z,16.87
2023-05-15T16:50:11.851Z,17.26
2023-05-15T16:52:45.330Z,17.41
2023-05-15T16:55:16.185Z,17.17
2023-05-15T16:57:45.077Z,17.01
2023-05-15T17:00:14.744Z,16.68
2023-05-15T17:02:44.892Z,16.25
2023-05-15T17:05:14.040Z,16.28
2023-05-15T17:07:43.290Z,16.07
2023-05-15T17:10:13.099Z,16.12
2023-05-15T17:12:41.416Z,16.34
2023-05-15T17:15:10.265Z,16.43
2023-05-15T17:17:38.445Z,16.48
2023-05-15T17:20:09.432Z,16.28
2023-05-15T17:22:37.702Z,16.11
2023-05-15T17:25:07.085Z,16.05
2023-05-15T17:27:39.611Z,15.79
2023-05-15T17:30:09.408Z,15.49
2023-05-15T17:32:38.106Z,15.87
2023-05-15T17:35:08.440Z,16.08
2023-05-15T17:37:36.777Z,15.99
2023-05-15T17:40:05.793Z,15.62
2023-05-15T17:42:34.377Z,15.38
2023-05-15T17:45:03.112Z,15.48
2023-05-15T17:47:31.308Z,15.56
2023-05-15T17:49:59.503Z,15.52
2023-05-15T17:52:29.080Z,15.66
2023-05-15T17:54:57.406Z,15.67
2023-05-15T17:57:25.600Z,15.55
2023-05-15T17:59:54.090Z,15.44
2023-05-15T18:02:22.272Z,15.59
2023-05-15T18:04:51.124Z,15.47
2023-05-15T18:07:19.559Z,15.31
2023-05-15T18:09:49.044Z,15.17
2023-05-15T18:12:17.239Z,15.02
2023-05-15T18:14:46.057Z,14.86
2023-05-15T18:17:14.249Z,14.46
2023-05-15T18:19:44.777Z,14.44
2023-05-15T18:22:13.081Z,14.47
2023-05-15T18:24:41.231Z,14.37
2023-05-15T18:27:10.812Z,14.18
2023-05-15T18:29:39.218Z,14.12
2023-05-15T18:32:07.669Z,13.93
2023-05-15T18:34:35.897Z,13.74
2023-05-15T18:37:04.085Z,13.74
2023-05-15T18:39:32.262Z,13.56
2023-05-15T18:42:01.140Z,13.43
2023-05-15T18:44:32.310Z,13.51
2023-05-15T18:47:00.599Z,13.39
2023-05-15T18:49:29.032Z,13.33
2023-05-15T18:51:57.995Z,13.32
2023-05-15T18:54:26.655Z,13.32
2023-05-15T18:56:54.813Z,13.20
2023-05-15T18:59:23.432Z,13.04
2023-05-15T19:01:53.916Z,13.00
2023-05-15T19:04:22.288Z,12.96
2023-05-15T19:06:50.765Z,12.84
2023-05-15T19:09:19.039Z,12.87
2023-05-15T19:11:49.317Z,12.68
2023-05-15T19:14:18.067Z,12.66
2023-05-15T19:16:46.699Z,12.61
2023-05-15T19:19:16.300Z,12.58
2023-05-15T19:21:44.653Z,12.67
2023-05-15T19:24:12.833Z,12.59
2023-05-15T19:26:40.984Z,12.56
2023-05-15T19:29:09.113Z,12.49
2023-05-15T19:31:38.635Z,12.38
2023-05-15T19:34:06.968Z,12.23
2023-05-15T19:36:36.470Z,12.19
2023-05-15T19:39:04.753Z,12.39
2023-05-15T19:41:33.030Z,12.15
2023-05-15T19:44:02.069Z,12.11
2023-05-15T19:46:30.743Z,12.17
2023-05-15T19:48:58.952Z,12.25
2023-05-15T19:51:27.285Z,12.33
2023-05-15T19:53:59.350Z,12.28
2023-05-15T19:56:27.506Z,12.15
2023-05-15T19:58:55.773Z,12.10
2023-05-15T20:01:24.023Z,12.11
2023-05-15T20:03:52.776Z,12.09
2023-05-15T20:06:21.532Z,11.95
2023-05-15T20:08:50.027Z,11.90
2023-05-15T20:11:19.522Z,11.79
2023-05-15T20:13:47.811Z,11.88
2023-05-15T20:16:16.554Z,11.96
2023-05-15T20:18:47.904Z,11.93
2023-05-15T20:21:16.723Z,11.95
2023-05-15T20:23:44.960Z,12.00
2023-05-15T20:26:13.099Z,12.01
2023-05-15T20:28:45.018Z,12.02
2023-05-15T20:31:13.591Z,12.05
2023-05-15T20:33:41.901Z,11.97
2023-05-15T20:36:10.618Z,11.97
2023-05-15T20:38:39.079Z,11.97
2023-05-15T20:41:07.322Z,11.93
2023-05-15T20:43:35.607Z,11.91
2023-05-15T20:46:05.313Z,11.86
2023-05-15T20:48:33.600Z,11.94
2023-05-15T20:51:01.727Z,11.93
2023-05-15T20:53:29.853Z,11.96
2023-05-15T20:55:58.162Z,11.92
2023-05-15T20:58:26.308Z,12.01
2023-05-15T21:00:54.511Z,11.93
2023-05-15T21:03:24.504Z,11.90
2023-05-15T21:05:54.228Z,11.81
2023-05-15T21:08:24.299Z,11.80
2023-05-15T21:10:55.349Z,11.89
2023-05-15T21:13:23.591Z,12.01
2023-05-15T21:15:52.005Z,11.95
2023-05-15T21:18:20.222Z,11.85
2023-05-15T21:20:49.728Z,11.98
2023-05-15T21:23:18.180Z,11.79
2023-05-15T21:25:46.447Z,11.81
2023-05-15T21:28:14.725Z,11.84
2023-05-15T21:30:42.908Z,11.95
2023-05-15T21:33:11.259Z,11.86
2023-05-15T21:35:39.744Z,11.87
2023-05-15T21:38:09.274Z,11.63
2023-05-15T21:40:37.627Z,11.55
2023-05-15T21:43:05.856Z,11.51
2023-05-15T21:45:34.097Z,11.64
2023-05-15T21:48:02.385Z,11.63
2023-05-15T21:50:30.562Z,11.44
2023-05-15T21:52:58.754Z,11.41
2023-05-15T21:55:28.336Z,11.42
2023-05-15T21:57:56.865Z,11.35
2023-05-15T22:00:25.267Z,11.39
2023-05-15T22:02:53.676Z,11.28
2023-05-15T22:05:22.216Z,11.44
2023-05-15T22:07:50.946Z,11.35
2023-05-15T22:10:19.205Z,11.22
2023-05-15T22:12:49.526Z,11.25
2023-05-15T22:15:17.864Z,11.24
2023-05-15T22:17:46.071Z,11.41
2023-05-15T22:20:14.504Z,11.44
2023-05-15T22:22:43.227Z,11.36
2023-05-15T22:25:11.453Z,11.19
2023-05-15T22:27:39.674Z,11.15
2023-05-15T22:30:10.381Z,11.30
2023-05-15T22:32:41.693Z,11.41
2023-05-15T22:35:10.782Z,11.34
2023-05-15T22:37:40.712Z,11.40
2023-05-15T22:40:10.031Z,11.63
2023-05-15T22:42:38.215Z,11.67
2023-05-15T22:45:07.243Z,11.60
2023-05-15T22:47:36.739Z,11.62
2023-05-15T22:50:05.585Z,11.58
2023-05-15T22:52:33.765Z,11.43
2023-05-15T22:55:01.934Z,11.36
2023-05-15T22:57:30.119Z,11.51
2023-05-15T22:59:58.428Z,11.39
2023-05-15T23:02:27.032Z,11.28
2023-05-15T23:04:56.513Z,11.16
2023-05-15T23:07:24.800Z,10.98
2023-05-15T23:09:53.038Z,11.20
2023-05-15T23:12:21.418Z,11.11
2023-05-15T23:14:49.578Z,11.12
2023-05-15T23:17:17.755Z,11.04
2023-05-15T23:19:46.535Z,11.02
2023-05-15T23:22:16.092Z,11.00
2023-05-15T23:24:44.367Z,10.88
2023-05-15T23:27:12.562Z,10.75
2023-05-15T23:29:41.159Z,10.69
2023-05-15T23:32:09.340Z,10.75
2023-05-15T23:34:37.491Z,10.77
2023-05-15T23:37:06.081Z,10.82
2023-05-15T23:39:36.075Z,10.72
2023-05-15T23:42:04.418Z,10.72
2023-05-15T23:44:32.603Z,10.63
2023-05-15T23:47:01.272Z,10.69
2023-05-15T23:49:29.527Z,10.90
2023-05-15T23:51:57.735Z,10.87
2023-05-15T23:54:26.028Z,10.46
2023-05-15T23:56:55.734Z,10.51
2023-05-15T23:59:23.957Z,10.67
